sensor_id;sensor_type;location;lat;lon;timestamp;pressure;altitude;pressure_sealevel;temperature;humidity
13869;BME280;7004;48.206;16.402;2024-03-17T00:01:11;100231.06;;;10.47;80.04
13869;BME280;7004;48.206;16.402;2024-03-17T00:03:38;100238.59;;;10.55;79.87
13869;BME280;7004;48.206;16.402;2024-03-17T00:06:05;100231.69;;;10.68;79.70
13869;BME280;7004;48.206;16.402;2024-03-17T00:08:31;100230.75;;;10.69;80.48
13869;BME280;7004;48.206;16.402;2024-03-17T00:10:58;100218.88;;;10.61;80.64
13869;BME280;7004;48.206;16.402;2024-03-17T00:13:24;100222.81;;;10.54;80.60
13869;BME280;7004;48.206;16.402;2024-03-17T00:15:50;100228.09;;;10.38;81.86
13869;BME280;7004;48.206;16.402;2024-03-17T00:18:17;100237.13;;;10.34;82.08
13869;BME280;7004;48.206;16.402;2024-03-17T00:20:43;100231.78;;;10.35;82.30
13869;BME280;7004;48.206;16.402;2024-03-17T00:23:10;100228.59;;;10.60;81.33
13869;BME280;7004;48.206;16.402;2024-03-17T00:25:38;100222.13;;;10.66;81.21
13869;BME280;7004;48.206;16.402;2024-03-17T00:28:05;100214.31;;;10.48;81.39
13869;BME280;7004;48.206;16.402;2024-03-17T00:30:35;100228.19;;;10.52;81.47
13869;BME280;7004;48.206;16.402;2024-03-17T00:33:02;100231.53;;;10.22;82.84
13869;BME280;7004;48.206;16.402;2024-03-17T00:35:30;100236.53;;;10.28;83.05
13869;BME280;7004;48.206;16.402;2024-03-17T00:37:56;100226.66;;;10.15;83.26
13869;BME280;7004;48.206;16.402;2024-03-17T00:40:22;100220.31;;;10.35;82.25
13869;BME280;7004;48.206;16.402;2024-03-17T00:42:49;100217.03;;;10.14;83.84
13869;BME280;7004;48.206;16.402;2024-03-17T00:45:15;100227.19;;;10.21;83.11
13869;BME280;7004;48.206;16.402;2024-03-17T00:47:41;100223.75;;;10.37;82.47
13869;BME280;7004;48.206;16.402;2024-03-17T00:50:08;100219.56;;;9.99;84.31
13869;BME280;7004;48.206;16.402;2024-03-17T00:52:37;100219.97;;;10.25;84.04
13869;BME280;7004;48.206;16.402;2024-03-17T00:55:03;100228.81;;;10.24;83.41
13869;BME280;7004;48.206;16.402;2024-03-17T00:57:31;100242.66;;;10.29;83.74
13869;BME280;7004;48.206;16.402;2024-03-17T00:59:58;100232.69;;;10.17;83.74
13869;BME280;7004;48.206;16.402;2024-03-17T01:02:24;100239.31;;;9.92;85.02
13869;BME280;7004;48.206;16.402;2024-03-17T01:04:50;100233.38;;;10.04;83.30
13869;BME280;7004;48.206;16.402;2024-03-17T01:07:16;100253.84;;;10.17;82.79
13869;BME280;7004;48.206;16.402;2024-03-17T01:09:42;100240.72;;;10.33;81.89
13869;BME280;7004;48.206;16.402;2024-03-17T01:12:08;100251.63;;;10.09;82.61
13869;BME280;7004;48.206;16.402;2024-03-17T01:14:35;100246.25;;;10.11;80.80
13869;BME280;7004;48.206;16.402;2024-03-17T01:17:01;100232.28;;;10.24;79.37
13869;BME280;7004;48.206;16.402;2024-03-17T01:19:31;100238.75;;;10.19;79.84
13869;BME280;7004;48.206;16.402;2024-03-17T01:21:59;100242.09;;;10.06;79.80
13869;BME280;7004;48.206;16.402;2024-03-17T01:24:25;100250.69;;;10.10;79.34
13869;BME280;7004;48.206;16.402;2024-03-17T01:27:00;100262.84;;;9.97;80.26
13869;BME280;7004;48.206;16.402;2024-03-17T01:29:27;100264.06;;;10.07;79.78
13869;BME280;7004;48.206;16.402;2024-03-17T01:31:53;100269.56;;;10.02;80.25
13869;BME280;7004;48.206;16.402;2024-03-17T01:34:20;100261.72;;;10.01;79.85
13869;BME280;7004;48.206;16.402;2024-03-17T01:36:46;100262.59;;;10.01;79.37
13869;BME280;7004;48.206;16.402;2024-03-17T01:39:12;100267.94;;;10.00;79.79
13869;BME280;7004;48.206;16.402;2024-03-17T01:41:39;100269.66;;;10.01;79.07
13869;BME280;7004;48.206;16.402;2024-03-17T01:44:05;100267.63;;;10.06;79.73
13869;BME280;7004;48.206;16.402;2024-03-17T01:46:33;100270.75;;;9.97;80.17
13869;BME280;7004;48.206;16.402;2024-03-17T01:48:59;100271.22;;;10.05;79.66
13869;BME280;7004;48.206;16.402;2024-03-17T01:51:25;100268.69;;;9.86;80.51
13869;BME280;7004;48.206;16.402;2024-03-17T01:53:52;100269.81;;;9.80;81.76
13869;BME280;7004;48.206;16.402;2024-03-17T01:56:20;100282.44;;;9.58;82.94
13869;BME280;7004;48.206;16.402;2024-03-17T01:58:46;100286.47;;;9.65;83.83
13869;BME280;7004;48.206;16.402;2024-03-17T02:01:12;100291.81;;;9.46;83.50
13869;BME280;7004;48.206;16.402;2024-03-17T02:03:42;100288.72;;;9.55;82.89
13869;BME280;7004;48.206;16.402;2024-03-17T02:06:15;100290.38;;;9.22;80.99
13869;BME280;7004;48.206;16.402;2024-03-17T02:08:54;100284.00;;;9.26;80.07
13869;BME280;7004;48.206;16.402;2024-03-17T02:11:32;100301.38;;;9.12;79.22
13869;BME280;7004;48.206;16.402;2024-03-17T02:14:00;100312.66;;;9.16;78.09
13869;BME280;7004;48.206;16.402;2024-03-17T02:16:31;100314.34;;;9.17;78.42
13869;BME280;7004;48.206;16.402;2024-03-17T02:19:06;100315.66;;;8.89;75.37
13869;BME280;7004;48.206;16.402;2024-03-17T02:21:45;100317.59;;;8.67;73.92
13869;BME280;7004;48.206;16.402;2024-03-17T02:24:20;100331.97;;;8.60;73.66
13869;BME280;7004;48.206;16.402;2024-03-17T02:26:46;100325.75;;;8.42;73.05
13869;BME280;7004;48.206;16.402;2024-03-17T02:29:13;100326.78;;;8.77;71.44
13869;BME280;7004;48.206;16.402;2024-03-17T02:31:44;100333.00;;;8.56;72.76
13869;BME280;7004;48.206;16.402;2024-03-17T02:34:10;100328.97;;;8.48;72.76
13869;BME280;7004;48.206;16.402;2024-03-17T02:36:36;100324.06;;;8.60;72.68
13869;BME280;7004;48.206;16.402;2024-03-17T02:39:03;100326.69;;;8.20;71.37
13869;BME280;7004;48.206;16.402;2024-03-17T02:41:47;100324.03;;;8.20;71.15
13869;BME280;7004;48.206;16.402;2024-03-17T02:44:13;100338.25;;;8.16;70.59
13869;BME280;7004;48.206;16.402;2024-03-17T02:46:40;100344.31;;;8.18;69.87
13869;BME280;7004;48.206;16.402;2024-03-17T02:49:06;100338.91;;;8.21;68.33
13869;BME280;7004;48.206;16.402;2024-03-17T02:51:35;100351.19;;;8.02;68.56
13869;BME280;7004;48.206;16.402;2024-03-17T02:54:01;100355.38;;;8.47;68.38
13869;BME280;7004;48.206;16.402;2024-03-17T02:56:27;100361.56;;;8.05;68.55
13869;BME280;7004;48.206;16.402;2024-03-17T02:58:54;100356.50;;;8.21;67.30
13869;BME280;7004;48.206;16.402;2024-03-17T03:01:20;100358.66;;;8.52;68.19
13869;BME280;7004;48.206;16.402;2024-03-17T03:03:47;100353.84;;;8.21;67.64
13869;BME280;7004;48.206;16.402;2024-03-17T03:06:16;100353.78;;;7.81;67.12
13869;BME280;7004;48.206;16.402;2024-03-17T03:08:46;100358.22;;;7.81;67.18
13869;BME280;7004;48.206;16.402;2024-03-17T03:11:16;100359.31;;;7.96;67.38
13869;BME280;7004;48.206;16.402;2024-03-17T03:13:45;100366.38;;;8.16;66.35
13869;BME280;7004;48.206;16.402;2024-03-17T03:16:14;100362.56;;;7.60;68.02
13869;BME280;7004;48.206;16.402;2024-03-17T03:18:42;100355.34;;;7.85;68.11
13869;BME280;7004;48.206;16.402;2024-03-17T03:21:11;100357.41;;;7.79;68.15
13869;BME280;7004;48.206;16.402;2024-03-17T03:23:38;100367.13;;;7.77;68.83
13869;BME280;7004;48.206;16.402;2024-03-17T03:26:05;100351.09;;;7.83;68.53
13869;BME280;7004;48.206;16.402;2024-03-17T03:28:37;100355.41;;;7.63;68.98
13869;BME280;7004;48.206;16.402;2024-03-17T03:31:04;100368.56;;;7.63;69.17
13869;BME280;7004;48.206;16.402;2024-03-17T03:33:32;100376.16;;;7.49;68.97
13869;BME280;7004;48.206;16.402;2024-03-17T03:35:58;100387.78;;;7.65;68.82
13869;BME280;7004;48.206;16.402;2024-03-17T03:38:25;100388.69;;;7.64;69.19
13869;BME280;7004;48.206;16.402;2024-03-17T03:40:51;100392.31;;;8.04;67.98
13869;BME280;7004;48.206;16.402;2024-03-17T03:43:19;100393.22;;;8.03;68.34
13869;BME280;7004;48.206;16.402;2024-03-17T03:45:45;100390.16;;;7.72;68.26
13869;BME280;7004;48.206;16.402;2024-03-17T03:48:11;100397.75;;;7.79;68.78
13869;BME280;7004;48.206;16.402;2024-03-17T03:50:41;100397.81;;;7.56;68.87
13869;BME280;7004;48.206;16.402;2024-03-17T03:53:07;100396.09;;;7.77;68.85
13869;BME280;7004;48.206;16.402;2024-03-17T03:55:34;100395.06;;;7.59;69.81
13869;BME280;7004;48.206;16.402;2024-03-17T03:58:02;100394.97;;;7.82;68.86
13869;BME280;7004;48.206;16.402;2024-03-17T04:00:29;100402.72;;;8.07;69.43
13869;BME280;7004;48.206;16.402;2024-03-17T04:02:59;100401.34;;;7.77;69.96
13869;BME280;7004;48.206;16.402;2024-03-17T04:05:26;100398.25;;;7.45;70.92
13869;BME280;7004;48.206;16.402;2024-03-17T04:07:52;100403.13;;;7.54;71.62
13869;BME280;7004;48.206;16.402;2024-03-17T04:10:19;100399.34;;;7.39;72.34
13869;BME280;7004;48.206;16.402;2024-03-17T04:12:46;100408.94;;;7.40;71.59
13869;BME280;7004;48.206;16.402;2024-03-17T04:15:13;100406.97;;;7.23;73.15
13869;BME280;7004;48.206;16.402;2024-03-17T04:17:40;100410.72;;;7.84;70.70
13869;BME280;7004;48.206;16.402;2024-03-17T04:20:07;100412.06;;;7.72;70.99
13869;BME280;7004;48.206;16.402;2024-03-17T04:22:34;100415.81;;;7.66;71.82
13869;BME280;7004;48.206;16.402;2024-03-17T04:25:01;100413.44;;;7.60;72.31
13869;BME280;7004;48.206;16.402;2024-03-17T04:27:27;100416.41;;;7.29;71.86
13869;BME280;7004;48.206;16.402;2024-03-17T04:29:56;100420.63;;;7.33;72.10
13869;BME280;7004;48.206;16.402;2024-03-17T04:32:23;100414.47;;;7.34;70.10
13869;BME280;7004;48.206;16.402;2024-03-17T04:34:50;100413.16;;;7.66;69.80
13869;BME280;7004;48.206;16.402;2024-03-17T04:37:17;100419.16;;;7.70;69.08
13869;BME280;7004;48.206;16.402;2024-03-17T04:39:45;100415.81;;;7.44;68.84
13869;BME280;7004;48.206;16.402;2024-03-17T04:42:14;100421.94;;;7.45;69.41
13869;BME280;7004;48.206;16.402;2024-03-17T04:44:41;100414.72;;;7.50;67.23
13869;BME280;7004;48.206;16.402;2024-03-17T04:47:08;100418.06;;;7.76;67.78
13869;BME280;7004;48.206;16.402;2024-03-17T04:49:42;100422.84;;;7.66;67.34
13869;BME280;7004;48.206;16.402;2024-03-17T04:52:12;100424.06;;;7.57;67.47
13869;BME280;7004;48.206;16.402;2024-03-17T04:54:38;100432.44;;;7.45;67.50
13869;BME280;7004;48.206;16.402;2024-03-17T04:57:09;100437.84;;;7.64;66.82
13869;BME280;7004;48.206;16.402;2024-03-17T04:59:35;100432.41;;;7.23;67.49
13869;BME280;7004;48.206;16.402;2024-03-17T05:02:02;100442.00;;;7.48;65.86
13869;BME280;7004;48.206;16.402;2024-03-17T05:04:29;100432.38;;;7.25;66.83
13869;BME280;7004;48.206;16.402;2024-03-17T05:06:56;100433.72;;;7.35;65.86
13869;BME280;7004;48.206;16.402;2024-03-17T05:09:23;100445.06;;;7.37;65.57
13869;BME280;7004;48.206;16.402;2024-03-17T05:11:50;100429.81;;;7.45;66.32
13869;BME280;7004;48.206;16.402;2024-03-17T05:14:19;100432.06;;;7.32;66.46
13869;BME280;7004;48.206;16.402;2024-03-17T05:16:49;100440.25;;;7.47;66.01
13869;BME280;7004;48.206;16.402;2024-03-17T05:19:16;100443.53;;;7.53;66.05
13869;BME280;7004;48.206;16.402;2024-03-17T05:21:44;100435.59;;;7.31;66.65
13869;BME280;7004;48.206;16.402;2024-03-17T05:24:11;100434.06;;;7.26;66.37
13869;BME280;7004;48.206;16.402;2024-03-17T05:26:38;100446.03;;;7.34;67.28
13869;BME280;7004;48.206;16.402;2024-03-17T05:29:05;100445.81;;;7.39;67.32
13869;BME280;7004;48.206;16.402;2024-03-17T05:31:31;100465.22;;;7.36;65.88
13869;BME280;7004;48.206;16.402;2024-03-17T05:33:57;100460.44;;;7.24;66.46
13869;BME280;7004;48.206;16.402;2024-03-17T05:36:23;100457.47;;;7.55;66.84
13869;BME280;7004;48.206;16.402;2024-03-17T05:38:51;100463.47;;;7.37;66.36
13869;BME280;7004;48.206;16.402;2024-03-17T05:41:17;100459.47;;;7.49;65.85
13869;BME280;7004;48.206;16.402;2024-03-17T05:43:43;100456.84;;;7.49;66.20
13869;BME280;7004;48.206;16.402;2024-03-17T05:46:11;100457.47;;;7.55;66.33
13869;BME280;7004;48.206;16.402;2024-03-17T05:48:40;100459.13;;;7.58;67.84
13869;BME280;7004;48.206;16.402;2024-03-17T05:51:11;100461.13;;;7.95;65.35
13869;BME280;7004;48.206;16.402;2024-03-17T05:53:39;100459.56;;;7.69;65.54
13869;BME280;7004;48.206;16.402;2024-03-17T05:56:07;100465.44;;;7.54;65.03
13869;BME280;7004;48.206;16.402;2024-03-17T05:58:38;100468.78;;;7.57;63.81
13869;BME280;7004;48.206;16.402;2024-03-17T06:01:05;100470.00;;;7.93;63.92
13869;BME280;7004;48.206;16.402;2024-03-17T06:03:37;100472.59;;;7.72;62.78
13869;BME280;7004;48.206;16.402;2024-03-17T06:06:05;100473.91;;;7.38;62.50
13869;BME280;7004;48.206;16.402;2024-03-17T06:08:33;100481.03;;;7.80;62.43
13869;BME280;7004;48.206;16.402;2024-03-17T06:10:59;100473.44;;;7.51;63.73
13869;BME280;7004;48.206;16.402;2024-03-17T06:13:29;100471.78;;;7.48;62.71
13869;BME280;7004;48.206;16.402;2024-03-17T06:15:55;100472.47;;;7.53;62.73
13869;BME280;7004;48.206;16.402;2024-03-17T06:18:27;100467.03;;;7.80;61.89
13869;BME280;7004;48.206;16.402;2024-03-17T06:20:54;100477.00;;;7.72;61.81
13869;BME280;7004;48.206;16.402;2024-03-17T06:23:24;100474.47;;;7.91;61.44
13869;BME280;7004;48.206;16.402;2024-03-17T06:25:53;100471.06;;;7.88;60.05
13869;BME280;7004;48.206;16.402;2024-03-17T06:28:21;100473.44;;;7.73;59.64
13869;BME280;7004;48.206;16.402;2024-03-17T06:30:58;100469.53;;;8.05;60.96
13869;BME280;7004;48.206;16.402;2024-03-17T06:33:30;100476.66;;;7.81;59.85
13869;BME280;7004;48.206;16.402;2024-03-17T06:36:00;100474.25;;;7.97;58.99
13869;BME280;7004;48.206;16.402;2024-03-17T06:38:27;100476.88;;;7.97;59.85
13869;BME280;7004;48.206;16.402;2024-03-17T06:40:53;100481.84;;;8.04;60.26
13869;BME280;7004;48.206;16.402;2024-03-17T06:43:20;100486.97;;;7.85;59.31
13869;BME280;7004;48.206;16.402;2024-03-17T06:45:56;100488.00;;;8.03;59.78
13869;BME280;7004;48.206;16.402;2024-03-17T06:48:25;100492.97;;;7.67;59.35
13869;BME280;7004;48.206;16.402;2024-03-17T06:50:52;100487.81;;;7.64;59.85
13869;BME280;7004;48.206;16.402;2024-03-17T06:53:21;100486.66;;;7.93;58.85
13869;BME280;7004;48.206;16.402;2024-03-17T06:55:59;100491.66;;;8.21;59.44
13869;BME280;7004;48.206;16.402;2024-03-17T06:58:27;100486.91;;;7.87;60.09
13869;BME280;7004;48.206;16.402;2024-03-17T07:00:58;100492.13;;;7.66;60.15
13869;BME280;7004;48.206;16.402;2024-03-17T07:03:30;100486.22;;;8.04;59.39
13869;BME280;7004;48.206;16.402;2024-03-17T07:06:00;100495.25;;;7.76;59.75
13869;BME280;7004;48.206;16.402;2024-03-17T07:08:30;100496.22;;;8.18;58.71
13869;BME280;7004;48.206;16.402;2024-03-17T07:10:57;100511.16;;;8.38;58.95
13869;BME280;7004;48.206;16.402;2024-03-17T07:13:24;100505.16;;;8.77;59.22
13869;BME280;7004;48.206;16.402;2024-03-17T07:15:50;100509.06;;;8.88;57.78
13869;BME280;7004;48.206;16.402;2024-03-17T07:18:16;100508.72;;;8.75;57.92
13869;BME280;7004;48.206;16.402;2024-03-17T07:20:43;100505.09;;;8.99;56.85
13869;BME280;7004;48.206;16.402;2024-03-17T07:23:11;100506.66;;;9.03;56.78
13869;BME280;7004;48.206;16.402;2024-03-17T07:25:37;100505.56;;;8.88;56.25
13869;BME280;7004;48.206;16.402;2024-03-17T07:28:03;100509.31;;;8.82;54.56
13869;BME280;7004;48.206;16.402;2024-03-17T07:30:29;100507.13;;;8.71;55.58
13869;BME280;7004;48.206;16.402;2024-03-17T07:32:56;100510.09;;;8.84;55.17
13869;BME280;7004;48.206;16.402;2024-03-17T07:35:22;100507.53;;;8.62;54.94
13869;BME280;7004;48.206;16.402;2024-03-17T07:37:49;100513.38;;;8.69;55.41
13869;BME280;7004;48.206;16.402;2024-03-17T07:40:15;100513.94;;;8.98;54.46
13869;BME280;7004;48.206;16.402;2024-03-17T07:42:41;100513.53;;;8.86;54.04
13869;BME280;7004;48.206;16.402;2024-03-17T07:45:08;100508.56;;;8.99;54.51
13869;BME280;7004;48.206;16.402;2024-03-17T07:47:34;100514.06;;;8.74;54.92
13869;BME280;7004;48.206;16.402;2024-03-17T07:50:04;100504.63;;;9.28;54.06
13869;BME280;7004;48.206;16.402;2024-03-17T07:52:32;100511.78;;;9.45;52.94
13869;BME280;7004;48.206;16.402;2024-03-17T07:54:58;100506.06;;;9.73;52.13
13869;BME280;7004;48.206;16.402;2024-03-17T07:57:25;100517.75;;;8.90;55.07
13869;BME280;7004;48.206;16.402;2024-03-17T07:59:51;100521.50;;;8.44;55.41
13869;BME280;7004;48.206;16.402;2024-03-17T08:02:18;100514.56;;;9.03;54.55
13869;BME280;7004;48.206;16.402;2024-03-17T08:04:44;100511.97;;;9.40;53.80
13869;BME280;7004;48.206;16.402;2024-03-17T08:07:13;100514.41;;;9.45;55.00
13869;BME280;7004;48.206;16.402;2024-03-17T08:09:39;100514.56;;;9.03;53.88
13869;BME280;7004;48.206;16.402;2024-03-17T08:12:06;100513.28;;;8.92;54.32
13869;BME280;7004;48.206;16.402;2024-03-17T08:14:33;100498.22;;;9.53;54.86
13869;BME280;7004;48.206;16.402;2024-03-17T08:16:59;100505.44;;;9.10;53.39
13869;BME280;7004;48.206;16.402;2024-03-17T08:19:25;100500.44;;;9.43;53.79
13869;BME280;7004;48.206;16.402;2024-03-17T08:21:51;100496.44;;;10.26;53.02
13869;BME280;7004;48.206;16.402;2024-03-17T08:24:17;100500.25;;;9.08;52.59
13869;BME280;7004;48.206;16.402;2024-03-17T08:26:43;100496.00;;;9.62;52.23
13869;BME280;7004;48.206;16.402;2024-03-17T08:29:11;100493.00;;;9.70;51.31
13869;BME280;7004;48.206;16.402;2024-03-17T08:31:38;100499.44;;;9.27;52.19
13869;BME280;7004;48.206;16.402;2024-03-17T08:34:04;100497.97;;;9.01;51.73
13869;BME280;7004;48.206;16.402;2024-03-17T08:36:31;100488.88;;;9.27;52.35
13869;BME280;7004;48.206;16.402;2024-03-17T08:38:57;100480.25;;;9.61;52.70
13869;BME280;7004;48.206;16.402;2024-03-17T08:41:24;100490.06;;;9.76;52.78
13869;BME280;7004;48.206;16.402;2024-03-17T08:43:52;100480.56;;;9.72;51.40
13869;BME280;7004;48.206;16.402;2024-03-17T08:46:18;100477.28;;;9.86;51.96
13869;BME280;7004;48.206;16.402;2024-03-17T08:48:44;100479.91;;;9.50;50.23
13869;BME280;7004;48.206;16.402;2024-03-17T08:51:10;100477.44;;;9.64;50.31
13869;BME280;7004;48.206;16.402;2024-03-17T08:53:37;100474.81;;;10.00;49.74
13869;BME280;7004;48.206;16.402;2024-03-17T08:56:07;100472.88;;;9.49;51.45
13869;BME280;7004;48.206;16.402;2024-03-17T08:58:33;100480.56;;;9.72;50.00
13869;BME280;7004;48.206;16.402;2024-03-17T09:01:02;100470.56;;;10.15;50.27
13869;BME280;7004;48.206;16.402;2024-03-17T09:03:29;100471.56;;;10.13;48.88
13869;BME280;7004;48.206;16.402;2024-03-17T09:05:55;100478.47;;;9.98;48.81
13869;BME280;7004;48.206;16.402;2024-03-17T09:08:23;100476.19;;;10.44;48.18
13869;BME280;7004;48.206;16.402;2024-03-17T09:10:51;100479.19;;;10.19;48.26
13869;BME280;7004;48.206;16.402;2024-03-17T09:13:25;100469.94;;;9.74;48.61
13869;BME280;7004;48.206;16.402;2024-03-17T09:16:00;100466.00;;;9.82;49.21
13869;BME280;7004;48.206;16.402;2024-03-17T09:18:33;100461.63;;;10.70;47.94
13869;BME280;7004;48.206;16.402;2024-03-17T09:23:30;100461.81;;;10.49;47.78
13869;BME280;7004;48.206;16.402;2024-03-17T09:26:00;100453.59;;;10.19;49.87
13869;BME280;7004;48.206;16.402;2024-03-17T09:28:27;100453.97;;;10.99;48.76
13869;BME280;7004;48.206;16.402;2024-03-17T09:30:56;100445.34;;;10.95;47.88
13869;BME280;7004;48.206;16.402;2024-03-17T09:33:24;100442.78;;;11.09;47.59
13869;BME280;7004;48.206;16.402;2024-03-17T09:36:08;100444.03;;;10.36;48.66
13869;BME280;7004;48.206;16.402;2024-03-17T09:38:37;100448.81;;;10.10;50.33
13869;BME280;7004;48.206;16.402;2024-03-17T09:41:06;100448.25;;;10.56;49.99
13869;BME280;7004;48.206;16.402;2024-03-17T09:43:34;100445.34;;;10.95;47.40
13869;BME280;7004;48.206;16.402;2024-03-17T09:46:05;100450.09;;;10.88;48.34
13869;BME280;7004;48.206;16.402;2024-03-17T09:48:31;100455.72;;;10.13;48.20
13869;BME280;7004;48.206;16.402;2024-03-17T09:51:02;100449.84;;;10.42;47.80
13869;BME280;7004;48.206;16.402;2024-03-17T09:53:31;100438.81;;;11.34;46.50
13869;BME280;7004;48.206;16.402;2024-03-17T09:56:09;100426.72;;;12.08;42.50
13869;BME280;7004;48.206;16.402;2024-03-17T09:58:35;100421.69;;;13.19;42.03
13869;BME280;7004;48.206;16.402;2024-03-17T10:01:01;100423.34;;;11.74;43.70
13869;BME280;7004;48.206;16.402;2024-03-17T10:06:30;100409.75;;;13.12;40.93
13869;BME280;7004;48.206;16.402;2024-03-17T10:08:59;100423.25;;;12.80;42.08
13869;BME280;7004;48.206;16.402;2024-03-17T10:11:35;100425.44;;;12.29;41.89
13869;BME280;7004;48.206;16.402;2024-03-17T10:14:07;100416.78;;;12.70;40.47
13869;BME280;7004;48.206;16.402;2024-03-17T10:16:36;100412.91;;;11.87;42.81
13869;BME280;7004;48.206;16.402;2024-03-17T10:19:26;100402.56;;;13.14;41.75
13869;BME280;7004;48.206;16.402;2024-03-17T10:22:00;100412.41;;;12.40;42.28
13869;BME280;7004;48.206;16.402;2024-03-17T10:24:28;100406.88;;;12.29;42.48
13869;BME280;7004;48.206;16.402;2024-03-17T10:26:59;100393.06;;;13.39;41.83
13869;BME280;7004;48.206;16.402;2024-03-17T10:29:31;100389.97;;;14.64;41.92
13869;BME280;7004;48.206;16.402;2024-03-17T10:32:03;100398.34;;;13.93;41.26
13869;BME280;7004;48.206;16.402;2024-03-17T10:34:31;100395.94;;;13.63;38.95
13869;BME280;7004;48.206;16.402;2024-03-17T10:37:15;100399.25;;;14.06;38.83
13869;BME280;7004;48.206;16.402;2024-03-17T10:39:44;100393.63;;;13.44;42.32
13869;BME280;7004;48.206;16.402;2024-03-17T10:42:11;100391.84;;;13.84;38.34
13869;BME280;7004;48.206;16.402;2024-03-17T10:44:41;100387.00;;;13.64;40.06
13869;BME280;7004;48.206;16.402;2024-03-17T10:49:47;100372.28;;;14.89;39.61
13869;BME280;7004;48.206;16.402;2024-03-17T10:52:18;100370.03;;;14.45;43.59
13869;BME280;7004;48.206;16.402;2024-03-17T10:54:49;100379.38;;;13.45;40.63
13869;BME280;7004;48.206;16.402;2024-03-17T10:57:46;100379.13;;;13.35;41.41
13869;BME280;7004;48.206;16.402;2024-03-17T11:00:18;100380.03;;;14.28;44.79
13869;BME280;7004;48.206;16.402;2024-03-17T11:02:45;100383.53;;;12.64;41.55
13869;BME280;7004;48.206;16.402;2024-03-17T11:05:22;100382.16;;;11.68;42.53
13869;BME280;7004;48.206;16.402;2024-03-17T11:07:51;100381.53;;;11.95;42.54
13869;BME280;7004;48.206;16.402;2024-03-17T11:10:23;100378.41;;;11.88;42.18
13869;BME280;7004;48.206;16.402;2024-03-17T11:13:00;100357.94;;;14.53;42.29
13869;BME280;7004;48.206;16.402;2024-03-17T11:20:37;100364.16;;;12.05;42.35
13869;BME280;7004;48.206;16.402;2024-03-17T11:23:05;100351.22;;;13.01;43.12
13869;BME280;7004;48.206;16.402;2024-03-17T11:28:02;100339.84;;;14.58;38.00
13869;BME280;7004;48.206;16.402;2024-03-17T11:41:42;100326.34;;;13.70;38.08
13869;BME280;7004;48.206;16.402;2024-03-17T11:47:04;100309.38;;;13.46;38.65
13869;BME280;7004;48.206;16.402;2024-03-17T11:49:39;100302.31;;;15.00;37.50
13869;BME280;7004;48.206;16.402;2024-03-17T11:52:11;100302.13;;;14.77;37.94
13869;BME280;7004;48.206;16.402;2024-03-17T11:54:47;100307.59;;;14.12;38.69
13869;BME280;7004;48.206;16.402;2024-03-17T11:57:27;100304.31;;;13.55;39.43
13869;BME280;7004;48.206;16.402;2024-03-17T11:59:56;100306.38;;;13.90;38.97
13869;BME280;7004;48.206;16.402;2024-03-17T12:02:31;100295.97;;;13.20;39.96
13869;BME280;7004;48.206;16.402;2024-03-17T12:05:00;100293.53;;;14.48;38.18
13869;BME280;7004;48.206;16.402;2024-03-17T12:07:27;100288.75;;;13.22;41.16
13869;BME280;7004;48.206;16.402;2024-03-17T12:09:56;100282.28;;;13.81;38.66
13869;BME280;7004;48.206;16.402;2024-03-17T12:12:26;100280.97;;;13.73;39.97
13869;BME280;7004;48.206;16.402;2024-03-17T12:15:02;100272.66;;;13.52;40.02
13869;BME280;7004;48.206;16.402;2024-03-17T12:17:29;100268.00;;;13.82;40.11
13869;BME280;7004;48.206;16.402;2024-03-17T12:19:55;100267.00;;;12.76;40.42
13869;BME280;7004;48.206;16.402;2024-03-17T12:22:24;100271.22;;;12.51;41.52
13869;BME280;7004;48.206;16.402;2024-03-17T12:24:54;100269.22;;;12.55;41.58
13869;BME280;7004;48.206;16.402;2024-03-17T12:27:24;100256.28;;;13.59;39.53
13869;BME280;7004;48.206;16.402;2024-03-17T12:29:55;100257.63;;;12.84;41.42
13869;BME280;7004;48.206;16.402;2024-03-17T12:32:23;100255.03;;;12.97;41.10
13869;BME280;7004;48.206;16.402;2024-03-17T12:34:55;100253.00;;;13.55;39.78
13869;BME280;7004;48.206;16.402;2024-03-17T12:37:27;100249.94;;;14.38;39.51
13869;BME280;7004;48.206;16.402;2024-03-17T12:40:00;100248.34;;;13.71;39.53
13869;BME280;7004;48.206;16.402;2024-03-17T12:42:28;100242.19;;;14.84;37.74
13869;BME280;7004;48.206;16.402;2024-03-17T12:45:01;100240.13;;;15.12;39.14
13869;BME280;7004;48.206;16.402;2024-03-17T12:47:30;100236.88;;;15.08;37.83
13869;BME280;7004;48.206;16.402;2024-03-17T12:50:01;100225.91;;;14.89;37.73
13869;BME280;7004;48.206;16.402;2024-03-17T12:52:32;100221.31;;;14.41;38.11
13869;BME280;7004;48.206;16.402;2024-03-17T12:55:04;100224.63;;;14.58;38.52
13869;BME280;7004;48.206;16.402;2024-03-17T13:01:08;100228.84;;;13.05;39.78
13869;BME280;7004;48.206;16.402;2024-03-17T13:03:37;100218.81;;;13.76;38.83
13869;BME280;7004;48.206;16.402;2024-03-17T13:06:09;100214.66;;;14.10;39.73
13869;BME280;7004;48.206;16.402;2024-03-17T13:08:36;100211.03;;;13.60;39.53
13869;BME280;7004;48.206;16.402;2024-03-17T13:11:04;100211.28;;;14.95;37.47
13869;BME280;7004;48.206;16.402;2024-03-17T13:13:30;100207.75;;;13.44;40.17
13869;BME280;7004;48.206;16.402;2024-03-17T13:15:56;100201.13;;;15.00;40.31
13869;BME280;7004;48.206;16.402;2024-03-17T13:18:22;100196.72;;;14.88;38.32
13869;BME280;7004;48.206;16.402;2024-03-17T13:20:48;100196.47;;;13.53;38.72
13869;BME280;7004;48.206;16.402;2024-03-17T13:23:20;100188.13;;;14.34;40.27
13869;BME280;7004;48.206;16.402;2024-03-17T13:25:47;100198.53;;;13.75;40.96
13869;BME280;7004;48.206;16.402;2024-03-17T13:28:13;100194.09;;;14.38;39.38
13869;BME280;7004;48.206;16.402;2024-03-17T13:30:40;100183.84;;;15.99;37.61
13869;BME280;7004;48.206;16.402;2024-03-17T13:33:08;100187.66;;;14.66;38.44
13869;BME280;7004;48.206;16.402;2024-03-17T13:35:36;100179.13;;;15.33;37.77